Time;durP1;ratioP1;P1;durP2;ratioP2;P2;SDS_P1;SDS_P2;PMS_P1;PMS_P2;Temp;Humidity;BMP_temperature;BMP_pressure;BME280_temperature;BME280_humidity;BME280_pressure;Samples;Min_cycle;Max_cycle;Signal;HPM_P1;HPM_P2
2022/03/27 00:00:17;;;;;;;25.80;12.85;;;18.50;40.50;;;;;;5056765;28;20035;-80
2022/03/27 00:02:44;;;;;;;22.90;12.18;;;18.40;40.40;;;;;;5057297;28;20028;-81
2022/03/27 00:05:11;;;;;;;23.98;12.95;;;18.40;40.50;;;;;;5074844;28;20032;-80
2022/03/27 00:07:38;;;;;;;24.00;13.07;;;18.30;40.50;;;;;;5056947;28;20498;-80
2022/03/27 00:10:04;;;;;;;25.35;12.40;;;18.10;40.80;;;;;;5056202;28;20253;-80
2022/03/27 00:12:31;;;;;;;22.25;13.20;;;18.00;40.70;;;;;;5074135;28;20025;-81
2022/03/27 00:14:57;;;;;;;22.92;12.02;;;17.80;41.20;;;;;;5056985;28;20360;-81
2022/03/27 00:17:23;;;;;;;25.05;12.80;;;17.90;41.50;;;;;;5074842;28;20067;-80
2022/03/27 00:19:49;;;;;;;28.92;13.45;;;17.70;40.80;;;;;;5074785;28;20040;-82
2022/03/27 00:22:15;;;;;;;27.92;14.00;;;17.30;41.00;;;;;;5074655;28;20470;-80
2022/03/27 00:24:41;;;;;;;27.83;13.65;;;17.40;41.20;;;;;;5074324;28;20402;-80
2022/03/27 00:27:07;;;;;;;25.58;13.00;;;17.40;41.00;;;;;;5074622;28;20486;-80
2022/03/27 00:29:33;;;;;;;25.20;12.90;;;17.70;40.90;;;;;;5056446;28;20044;-80
2022/03/27 00:31:59;;;;;;;25.05;12.77;;;17.70;40.80;;;;;;5073892;28;20033;-80
2022/03/27 00:34:25;;;;;;;22.75;13.23;;;17.70;40.70;;;;;;5074503;28;20035;-80
2022/03/27 00:36:51;;;;;;;23.92;12.73;;;17.80;40.60;;;;;;5056564;28;20116;-81
2022/03/27 00:39:16;;;;;;;23.48;12.85;;;17.80;40.90;;;;;;5056110;28;20114;-80
2022/03/27 00:41:45;;;;;;;23.40;12.68;;;17.80;40.70;;;;;;5056217;28;20082;-80
2022/03/27 00:44:11;;;;;;;23.15;12.80;;;17.60;40.70;;;;;;5074109;28;20510;-80
2022/03/27 00:46:36;;;;;;;22.90;13.50;;;17.30;41.40;;;;;;5073777;28;20490;-80
2022/03/27 00:49:03;;;;;;;22.70;13.38;;;17.10;41.70;;;;;;5055938;28;20403;-80
2022/03/27 00:51:29;;;;;;;26.02;13.75;;;16.90;42.20;;;;;;5073987;28;20374;-80
2022/03/27 00:53:54;;;;;;;22.63;14.07;;;16.70;42.30;;;;;;5073866;28;20471;-80
2022/03/27 00:56:20;;;;;;;22.77;13.23;;;16.40;42.60;;;;;;5074070;28;20032;-80
2022/03/27 00:58:46;;;;;;;28.38;13.60;;;16.40;42.70;;;;;;5055811;28;20100;-80
2022/03/27 01:01:33;;;;;;;24.23;13.38;;;16.30;43.20;;;;;;5056031;28;20463;-80
2022/03/27 01:03:59;;;;;;;24.75;13.88;;;16.20;43.20;;;;;;5073773;28;20027;-79
2022/03/27 01:06:44;;;;;;;27.10;13.48;;;15.80;43.60;;;;;;5055852;28;20024;-80
2022/03/27 01:09:37;;;;;;;29.63;13.82;;;15.40;44.30;;;;;;5073563;28;20039;-80
2022/03/27 01:12:32;;;;;;;26.50;13.50;;;15.10;45.00;;;;;;5055673;28;20021;-80
2022/03/27 01:14:59;;;;;;;29.15;13.82;;;14.90;45.50;;;;;;5055843;28;20368;-80
2022/03/27 01:17:26;;;;;;;25.42;13.00;;;15.00;45.70;;;;;;5055540;28;20054;-80
2022/03/27 01:19:54;;;;;;;22.60;13.07;;;15.00;45.70;;;;;;5073656;28;20463;-80
2022/03/27 01:22:20;;;;;;;23.88;13.65;;;15.50;45.00;;;;;;5054780;28;20085;-80
2022/03/27 01:24:48;;;;;;;26.30;13.00;;;15.90;44.40;;;;;;5046920;28;20801;-80
2022/03/27 01:27:13;;;;;;;29.33;13.88;;;16.10;43.80;;;;;;5075307;28;20486;-80
2022/03/27 01:29:40;;;;;;;23.60;14.18;;;16.00;44.00;;;;;;5093257;28;20043;-80
2022/03/27 01:32:14;;;;;;;29.17;14.23;;;15.90;44.30;;;;;;5094152;28;20378;-81
2022/03/27 01:34:41;;;;;;;29.10;14.73;;;16.10;43.80;;;;;;5075528;28;20115;-80
2022/03/27 01:37:07;;;;;;;25.42;14.02;;;16.20;43.60;;;;;;5093427;28;20017;-80
2022/03/27 01:39:33;;;;;;;25.80;13.68;;;16.50;43.50;;;;;;5093521;28;20028;-80
2022/03/27 01:41:59;;;;;;;30.00;14.02;;;16.70;43.20;;;;;;5075430;28;20069;-80
2022/03/27 01:44:26;;;;;;;25.52;14.90;;;16.80;42.90;;;;;;5093182;28;20032;-80
2022/03/27 01:46:52;;;;;;;25.08;13.23;;;16.90;42.90;;;;;;5093043;28;20554;-80
2022/03/27 01:49:19;;;;;;;25.88;13.85;;;17.10;42.90;;;;;;5075407;28;20448;-80
2022/03/27 01:51:46;;;;;;;24.27;13.68;;;17.30;42.50;;;;;;5093297;28;20081;-80
2022/03/27 01:54:13;;;;;;;27.30;14.88;;;17.40;43.00;;;;;;5093290;28;20038;-80
2022/03/27 01:56:39;;;;;;;26.55;14.07;;;17.10;43.00;;;;;;5075333;28;20120;-80
2022/03/27 01:59:07;;;;;;;21.13;13.07;;;16.90;43.40;;;;;;5075343;28;20115;-80
2022/03/27 02:01:34;;;;;;;24.13;13.40;;;16.70;44.00;;;;;;5092946;28;20085;-80
2022/03/27 02:04:00;;;;;;;27.70;13.32;;;16.70;44.00;;;;;;5075042;28;20032;-80
2022/03/27 02:06:26;;;;;;;26.10;13.75;;;16.50;44.30;;;;;;5075246;28;20024;-80
2022/03/27 02:08:52;;;;;;;25.67;13.50;;;16.60;44.00;;;;;;5074746;28;20092;-80
2022/03/27 02:11:19;;;;;;;24.65;13.40;;;16.60;44.00;;;;;;5093248;28;20020;-80
2022/03/27 02:13:45;;;;;;;25.67;13.38;;;16.40;44.30;;;;;;5092894;28;20028;-80
2022/03/27 02:16:11;;;;;;;26.33;13.52;;;16.50;44.40;;;;;;5074995;28;20355;-80
2022/03/27 02:18:37;;;;;;;26.88;13.65;;;16.40;44.50;;;;;;5075361;28;20024;-80
2022/03/27 02:21:03;;;;;;;27.60;12.98;;;16.50;44.30;;;;;;5093114;28;20498;-80
2022/03/27 02:23:29;;;;;;;28.77;13.10;;;16.30;44.60;;;;;;5092868;28;20020;-80
2022/03/27 02:25:56;;;;;;;23.10;13.18;;;15.90;45.10;;;;;;5093078;28;20032;-80
2022/03/27 02:28:22;;;;;;;28.45;14.35;;;15.70;45.50;;;;;;5092710;28;20044;-80
2022/03/27 02:30:49;;;;;;;23.35;13.13;;;15.70;45.60;;;;;;5074772;28;20020;-79
2022/03/27 02:33:16;;;;;;;23.65;13.95;;;15.60;45.80;;;;;;5093939;28;20055;-80
2022/03/27 02:35:41;;;;;;;27.95;14.90;;;15.40;46.10;;;;;;5078959;28;20028;-80
2022/03/27 02:38:07;;;;;;;26.92;14.38;;;15.60;45.80;;;;;;5096808;28;20062;-80
2022/03/27 02:40:34;;;;;;;32.03;15.52;;;16.00;44.70;;;;;;5078695;28;20024;-80
2022/03/27 02:43:00;;;;;;;26.70;14.68;;;16.30;43.90;;;;;;5096582;28;20051;-80
2022/03/27 02:45:27;;;;;;;31.90;15.57;;;16.10;44.50;;;;;;5096632;28;20035;-80
2022/03/27 02:47:54;;;;;;;27.85;14.73;;;16.10;44.60;;;;;;5078626;28;20433;-80
2022/03/27 02:50:20;;;;;;;26.65;14.70;;;16.10;44.70;;;;;;5079171;28;20127;-80
2022/03/27 02:52:46;;;;;;;29.10;14.35;;;16.50;44.00;;;;;;5097098;28;20095;-80
2022/03/27 02:55:12;;;;;;;29.95;14.90;;;16.70;43.30;;;;;;5096780;28;20032;-81
2022/03/27 02:57:38;;;;;;;28.13;15.32;;;16.70;43.70;;;;;;5096801;28;20020;-81
2022/03/27 03:00:08;;;;;;;40.15;15.20;;;16.60;44.30;;;;;;5096554;28;20020;-80
2022/03/27 03:02:35;;;;;;;27.48;14.90;;;16.60;44.60;;;;;;5096296;28;20020;-80
2022/03/27 03:05:01;;;;;;;27.25;14.10;;;16.50;44.80;;;;;;5096615;28;20157;-80
2022/03/27 03:07:27;;;;;;;24.33;13.65;;;16.30;45.20;;;;;;5078578;28;20109;-80
2022/03/27 03:09:54;;;;;;;24.90;13.90;;;16.10;45.20;;;;;;5077943;28;20065;-80
2022/03/27 03:12:20;;;;;;;26.00;14.27;;;15.60;45.90;;;;;;5078271;28;20020;-80
2022/03/27 03:14:46;;;;;;;26.38;14.18;;;15.40;46.40;;;;;;5096231;28;20037;-80
2022/03/27 03:17:12;;;;;;;28.35;14.63;;;15.60;46.30;;;;;;5095690;28;20032;-80
2022/03/27 03:19:38;;;;;;;29.40;15.60;;;15.30;46.40;;;;;;5077818;28;20070;-80
2022/03/27 03:22:04;;;;;;;23.50;13.93;;;14.60;48.80;;;;;;5077597;28;20077;-80
2022/03/27 03:24:30;;;;;;;25.20;13.95;;;14.80;48.90;;;;;;5077734;28;20027;-80
2022/03/27 03:26:57;;;;;;;25.40;14.43;;;15.10;48.00;;;;;;5095669;28;20020;-80
2022/03/27 03:29:23;;;;;;;25.55;14.90;;;15.20;47.70;;;;;;5077403;28;20048;-80
2022/03/27 03:31:49;;;;;;;27.80;14.20;;;15.00;47.40;;;;;;5077534;28;20032;-80
2022/03/27 03:34:16;;;;;;;27.23;15.35;;;14.80;47.40;;;;;;5077485;28;20582;-80
2022/03/27 03:36:43;;;;;;;28.13;14.85;;;14.80;47.60;;;;;;5077718;28;20025;-80
2022/03/27 03:39:09;;;;;;;23.80;14.27;;;15.10;47.20;;;;;;5095286;28;20028;-80
2022/03/27 03:41:35;;;;;;;27.38;14.60;;;15.30;47.40;;;;;;5077906;28;20024;-79
2022/03/27 03:44:00;;;;;;;27.08;14.50;;;15.10;47.30;;;;;;5077640;28;20035;-80
2022/03/27 03:46:26;;;;;;;26.52;14.32;;;15.00;47.20;;;;;;5094737;28;20031;-81
2022/03/27 03:48:52;;;;;;;27.25;14.40;;;15.10;46.70;;;;;;5077598;28;20397;-80
2022/03/27 03:51:18;;;;;;;27.80;14.10;;;15.20;46.30;;;;;;5095603;28;20024;-81
2022/03/27 03:53:44;;;;;;;29.35;15.25;;;15.40;45.80;;;;;;5095330;28;20055;-79
2022/03/27 03:56:11;;;;;;;29.27;14.73;;;15.50;45.60;;;;;;5095193;28;20029;-80
2022/03/27 03:58:37;;;;;;;26.30;14.77;;;15.80;45.00;;;;;;5095352;28;20345;-80
2022/03/27 04:01:03;;;;;;;27.10;14.35;;;16.00;44.60;;;;;;5094815;28;20054;-80
2022/03/27 04:03:29;;;;;;;26.65;14.55;;;16.10;44.50;;;;;;5077246;28;20513;-80
2022/03/27 04:05:55;;;;;;;27.92;14.85;;;16.30;44.40;;;;;;5077184;28;20024;-80
2022/03/27 04:08:21;;;;;;;24.77;14.25;;;16.50;43.80;;;;;;5094722;28;20032;-80
2022/03/27 04:10:48;;;;;;;26.17;14.00;;;16.80;43.60;;;;;;5076680;28;20028;-79
2022/03/27 04:13:13;;;;;;;23.23;14.07;;;16.70;43.50;;;;;;5076486;28;20020;-80
2022/03/27 04:15:39;;;;;;;26.42;14.70;;;16.10;44.90;;;;;;5076576;28;20035;-80
2022/03/27 04:18:06;;;;;;;25.42;14.50;;;15.90;45.80;;;;;;5077004;28;20047;-80
2022/03/27 04:20:32;;;;;;;28.75;15.05;;;15.80;46.30;;;;;;5094945;28;20024;-80
2022/03/27 04:22:57;;;;;;;25.85;14.38;;;15.80;46.70;;;;;;5076770;28;20047;-80
2022/03/27 04:25:23;;;;;;;25.73;14.48;;;15.40;47.20;;;;;;5076793;28;20386;-80
2022/03/27 04:27:49;;;;;;;25.30;15.02;;;15.60;47.20;;;;;;5076253;28;20201;-80
2022/03/27 04:30:15;;;;;;;23.48;14.32;;;15.70;46.90;;;;;;5094420;28;20044;-80
2022/03/27 04:32:41;;;;;;;26.67;14.70;;;15.70;46.60;;;;;;5094557;28;20024;-80
2022/03/27 04:35:08;;;;;;;29.48;14.43;;;15.20;46.90;;;;;;5076337;28;20057;-80
2022/03/27 04:37:41;;;;;;;27.05;15.02;;;14.90;47.70;;;;;;5094455;28;20463;-80
2022/03/27 04:40:09;;;;;;;26.17;15.07;;;14.70;48.10;;;;;;5076162;28;20463;-79
2022/03/27 04:42:34;;;;;;;27.20;15.82;;;14.60;48.00;;;;;;5076166;28;20024;-79
2022/03/27 04:45:00;;;;;;;28.45;15.10;;;14.20;48.70;;;;;;5094567;28;20027;-80
2022/03/27 04:47:26;;;;;;;29.10;14.05;;;14.10;49.80;;;;;;5094150;28;20490;-80
2022/03/27 04:49:51;;;;;;;28.85;15.25;;;14.00;48.90;;;;;;5082881;28;20119;-78
2022/03/27 04:52:17;;;;;;;26.38;15.80;;;13.90;49.70;;;;;;5069761;28;20031;-79
2022/03/27 04:54:43;;;;;;;30.10;15.20;;;14.00;49.80;;;;;;5064467;28;20039;-79
2022/03/27 04:57:09;;;;;;;27.73;15.13;;;14.20;49.10;;;;;;5056504;28;20115;-78
2022/03/27 04:59:35;;;;;;;26.50;15.65;;;14.30;48.80;;;;;;5059462;28;20028;-79
2022/03/27 05:02:01;;;;;;;39.63;19.25;;;14.50;48.70;;;;;;5076133;28;20078;-79
2022/03/27 05:04:27;;;;;;;31.80;17.02;;;14.80;48.30;;;;;;5087015;28;20024;-79
2022/03/27 05:06:53;;;;;;;40.15;19.70;;;15.10;47.60;;;;;;5073729;28;20013;-80
2022/03/27 05:09:19;;;;;;;27.67;15.00;;;15.10;47.90;;;;;;5073673;28;20028;-79
2022/03/27 05:11:46;;;;;;;27.73;15.73;;;15.00;48.00;;;;;;5073801;28;20020;-80
2022/03/27 05:14:12;;;;;;;28.85;15.73;;;14.80;47.60;;;;;;5074072;28;20414;-79
2022/03/27 05:16:38;;;;;;;28.08;16.25;;;14.90;47.70;;;;;;5073443;28;20090;-79
2022/03/27 05:19:06;;;;;;;26.77;15.80;;;15.10;47.40;;;;;;5073348;28;20025;-79
2022/03/27 05:21:33;;;;;;;35.20;17.48;;;15.20;47.50;;;;;;5073708;28;20129;-79
2022/03/27 05:23:59;;;;;;;32.92;15.38;;;15.40;47.10;;;;;;5055268;28;20102;-79
2022/03/27 05:26:26;;;;;;;28.30;14.98;;;15.40;46.70;;;;;;5055921;28;20074;-78
2022/03/27 05:28:53;;;;;;;27.95;14.95;;;15.30;46.60;;;;;;5073543;28;20032;-79
2022/03/27 05:31:19;;;;;;;25.92;14.50;;;15.50;46.90;;;;;;5055816;28;20386;-80
2022/03/27 05:33:48;;;;;;;28.75;15.30;;;15.80;46.20;;;;;;4705379;28;10000335;-79
2022/03/27 05:36:13;;;;;;;27.73;14.98;;;15.70;46.50;;;;;;5053282;28;20081;-78
2022/03/27 05:38:41;;;;;;;28.95;15.73;;;15.70;46.10;;;;;;5070485;28;20028;-77
2022/03/27 05:41:09;;;;;;;23.65;14.35;;;15.50;46.50;;;;;;5070759;28;20146;-77
2022/03/27 05:43:35;;;;;;;23.55;14.15;;;15.60;46.60;;;;;;5057226;28;20053;-78
2022/03/27 05:46:02;;;;;;;28.10;14.82;;;15.60;47.10;;;;;;5071795;28;20058;-78
2022/03/27 05:48:28;;;;;;;25.58;15.45;;;15.50;47.60;;;;;;5053403;28;20017;-79
2022/03/27 05:50:54;;;;;;;26.80;15.57;;;15.50;48.00;;;;;;5053430;28;20039;-79
2022/03/27 05:53:20;;;;;;;32.25;16.30;;;15.80;47.80;;;;;;5070242;28;20020;-79
2022/03/27 05:55:47;;;;;;;30.20;15.95;;;15.90;47.90;;;;;;5065231;28;20028;-78
2022/03/27 05:58:13;;;;;;;27.63;15.65;;;15.60;48.60;;;;;;5052794;28;20024;-80
2022/03/27 06:00:39;;;;;;;26.67;14.70;;;15.80;48.40;;;;;;5053365;28;20501;-78
2022/03/27 06:03:05;;;;;;;22.10;13.80;;;15.90;48.10;;;;;;5059800;28;20028;-79
2022/03/27 06:05:31;;;;;;;21.65;13.23;;;15.80;48.70;;;;;;5053700;28;20028;-79
2022/03/27 06:07:59;;;;;;;22.33;12.05;;;16.00;48.10;;;;;;5062705;28;20031;-80
2022/03/27 06:10:27;;;;;;;18.58;11.88;;;16.30;47.40;;;;;;5068068;28;20041;-79
2022/03/27 06:12:53;;;;;;;19.02;11.50;;;16.50;47.30;;;;;;5075149;28;20028;-79
2022/03/27 06:15:20;;;;;;;20.88;11.68;;;16.70;46.90;;;;;;5057286;28;20059;-79
2022/03/27 06:17:49;;;;;;;23.05;11.93;;;16.80;46.70;;;;;;5085704;28;20419;-79
2022/03/27 06:20:18;;;;;;;21.80;11.98;;;16.90;46.90;;;;;;5077167;28;20530;-79
2022/03/27 06:22:44;;;;;;;17.50;11.55;;;17.20;46.40;;;;;;5085172;28;20126;-78
2022/03/27 06:25:12;;;;;;;21.52;12.43;;;17.60;46.00;;;;;;5061622;28;20028;-79
2022/03/27 06:27:38;;;;;;;23.83;12.35;;;17.80;45.50;;;;;;5075696;28;20056;-79
2022/03/27 06:30:19;;;;;;;19.98;11.80;;;18.00;45.40;;;;;;5075830;28;20032;-79
2022/03/27 06:32:46;;;;;;;22.13;11.80;;;17.90;45.40;;;;;;5058555;28;20438;-79
2022/03/27 06:35:32;;;;;;;22.95;12.45;;;17.90;45.40;;;;;;5076235;28;20475;-78
2022/03/27 06:37:58;;;;;;;20.90;12.48;;;18.10;45.30;;;;;;5076253;28;20021;-81
2022/03/27 06:40:24;;;;;;;27.15;13.15;;;17.90;45.20;;;;;;5058126;28;20021;-80
2022/03/27 06:42:50;;;;;;;21.75;12.05;;;17.90;45.70;;;;;;5074395;28;20028;-79
2022/03/27 06:45:16;;;;;;;23.50;12.75;;;17.70;45.90;;;;;;5074156;28;20027;-79
2022/03/27 06:47:48;;;;;;;19.38;11.75;;;17.90;45.90;;;;;;5057739;28;20064;-80
2022/03/27 06:50:16;;;;;;;17.88;11.18;;;17.90;45.80;;;;;;5057872;28;20032;-79
2022/03/27 06:52:43;;;;;;;20.83;12.75;;;18.20;45.50;;;;;;5074234;28;20101;-79
2022/03/27 06:55:10;;;;;;;21.65;12.07;;;18.30;45.20;;;;;;5094895;28;20040;-80
2022/03/27 06:57:37;;;;;;;18.60;12.02;;;18.10;45.10;;;;;;5094701;28;20012;-80
2022/03/27 07:03:02;;;;;;;20.90;14.05;;;17.70;45.40;;;;;;5079346;28;20063;-79
2022/03/27 07:05:28;;;;;;;26.83;13.98;;;17.60;45.70;;;;;;5066128;28;20036;-81
2022/03/27 07:07:54;;;;;;;25.60;14.02;;;16.90;46.80;;;;;;5072798;28;20531;-80
2022/03/27 07:10:20;;;;;;;19.95;12.73;;;16.40;48.00;;;;;;5075892;28;20028;-78
2022/03/27 07:12:47;;;;;;;24.70;13.23;;;16.30;48.10;;;;;;5058045;28;20410;-80
2022/03/27 07:15:13;;;;;;;20.85;13.15;;;16.70;47.30;;;;;;5057304;28;20056;-80
2022/03/27 07:17:44;;;;;;;24.38;14.00;;;17.40;46.50;;;;;;5074785;28;20071;-81
2022/03/27 07:20:12;;;;;;;28.13;13.13;;;17.30;46.00;;;;;;5087636;28;20600;-80
2022/03/27 07:22:39;;;;;;;20.33;12.43;;;17.20;46.50;;;;;;5095359;28;20034;-81
2022/03/27 07:25:07;;;;;;;19.27;12.05;;;17.50;45.80;;;;;;5077964;28;20047;-80
2022/03/27 07:27:34;;;;;;;20.92;12.52;;;17.50;46.30;;;;;;5076912;28;20178;-80
2022/03/27 07:30:00;;;;;;;19.80;12.52;;;17.50;46.20;;;;;;5077000;28;20470;-79
2022/03/27 07:32:26;;;;;;;19.98;12.27;;;18.00;46.00;;;;;;5095203;28;20058;-80
2022/03/27 07:34:52;;;;;;;19.75;13.38;;;19.00;44.10;;;;;;5077327;28;20048;-79
2022/03/27 07:37:18;;;;;;;21.52;13.98;;;20.10;43.40;;;;;;5077866;28;20076;-81
2022/03/27 07:39:43;;;;;;;18.33;12.65;;;21.40;41.80;;;;;;5077938;28;20024;-81
2022/03/27 07:42:09;;;;;;;22.83;12.80;;;21.00;41.80;;;;;;5077102;28;20024;-80
2022/03/27 07:44:35;;;;;;;18.35;12.02;;;21.20;41.40;;;;;;5076784;28;20031;-81
2022/03/27 07:47:01;;;;;;;17.13;12.10;;;21.70;41.20;;;;;;5077038;28;20024;-80
2022/03/27 07:49:27;;;;;;;19.52;11.82;;;21.50;41.10;;;;;;5076966;28;20122;-81
2022/03/27 07:51:55;;;;;;;18.13;12.27;;;22.40;40.40;;;;;;5076191;28;20028;-79
2022/03/27 07:54:22;;;;;;;25.00;10.80;;;23.10;39.70;;;;;;5094385;28;20462;-81
2022/03/27 07:56:48;;;;;;;16.40;10.63;;;24.30;38.20;;;;;;5072337;28;20020;-80
2022/03/27 07:59:13;;;;;;;17.88;11.85;;;24.80;37.70;;;;;;5056544;28;20028;-80
2022/03/27 08:01:39;;;;;;;14.63;10.43;;;24.90;37.30;;;;;;5074882;28;20013;-81
2022/03/27 08:04:05;;;;;;;20.42;10.90;;;25.70;37.50;;;;;;5040256;28;20119;-80
2022/03/27 08:06:36;;;;;;;16.55;10.70;;;25.80;37.00;;;;;;5075823;28;20437;-80
2022/03/27 08:09:03;;;;;;;17.48;11.02;;;26.20;37.00;;;;;;5057174;28;20479;-80
2022/03/27 08:11:29;;;;;;;15.90;11.15;;;26.10;36.70;;;;;;5073853;28;20032;-81
2022/03/27 08:13:55;;;;;;;20.90;11.27;;;26.60;36.30;;;;;;5089736;28;20514;-80
2022/03/27 08:16:20;;;;;;;19.00;11.98;;;26.90;35.90;;;;;;5086830;28;20351;-78
2022/03/27 08:18:46;;;;;;;15.45;10.77;;;27.50;36.90;;;;;;5077026;28;20028;-80
2022/03/27 08:21:12;;;;;;;16.63;10.57;;;27.50;36.10;;;;;;5062540;28;20433;-80
2022/03/27 08:23:38;;;;;;;15.82;10.00;;;27.70;35.80;;;;;;5066526;28;20032;-81
2022/03/27 08:28:48;;;;;;;17.55;11.40;;;28.60;35.60;;;;;;5075887;28;20067;-82
2022/03/27 08:31:13;;;;;;;14.23;11.00;;;29.80;35.00;;;;;;5058361;28;20414;-81
2022/03/27 08:33:39;;;;;;;16.55;11.10;;;27.70;34.50;;;;;;5056739;28;20062;-81
2022/03/27 08:36:05;;;;;;;14.77;10.77;;;25.10;37.00;;;;;;5056301;28;20028;-81
2022/03/27 08:38:31;;;;;;;14.63;10.85;;;24.40;37.50;;;;;;5056205;28;20453;-81
2022/03/27 08:41:00;;;;;;;17.40;11.02;;;24.30;38.20;;;;;;5075093;28;20426;-79
2022/03/27 08:43:30;;;;;;;18.30;10.68;;;24.20;37.90;;;;;;5074011;28;20423;-82
2022/03/27 08:45:58;;;;;;;16.23;11.18;;;25.40;37.50;;;;;;5060969;28;20028;-80
2022/03/27 08:48:25;;;;;;;30.65;11.65;;;27.10;36.40;;;;;;5089832;28;20030;-81
2022/03/27 08:51:02;;;;;;;16.45;11.70;;;28.30;35.60;;;;;;5094233;28;20028;-80
2022/03/27 08:53:47;;;;;;;17.75;10.93;;;29.70;34.90;;;;;;5075744;28;20026;-81
2022/03/27 08:56:15;;;;;;;20.23;12.88;;;29.90;33.90;;;;;;5069529;28;20036;-81
2022/03/27 08:58:46;;;;;;;15.57;11.70;;;30.10;34.90;;;;;;5083443;28;20024;-81
2022/03/27 09:01:12;;;;;;;16.25;11.05;;;30.10;34.60;;;;;;5072726;28;20016;-81
2022/03/27 09:03:38;;;;;;;19.48;11.52;;;31.30;34.00;;;;;;5071418;28;20028;-81
2022/03/27 09:06:08;;;;;;;17.80;12.05;;;31.60;34.10;;;;;;5075496;28;20078;-82
2022/03/27 09:08:34;;;;;;;14.27;10.73;;;30.80;33.70;;;;;;5074254;28;20031;-82
2022/03/27 09:11:01;;;;;;;17.90;10.73;;;29.60;34.00;;;;;;5074679;28;20666;-81
2022/03/27 09:13:27;;;;;;;18.60;10.98;;;28.10;34.70;;;;;;5092384;28;20013;-81
2022/03/27 09:16:01;;;;;;;16.75;10.45;;;28.50;35.50;;;;;;5074544;28;20028;-82
2022/03/27 09:18:52;;;;;;;14.80;9.82;;;30.00;36.80;;;;;;5093289;28;20109;-82
2022/03/27 09:21:20;;;;;;;14.45;10.35;;;30.90;33.50;;;;;;5058848;28;20032;-81
2022/03/27 09:23:55;;;;;;;14.57;11.00;;;28.40;34.80;;;;;;5084408;28;20028;-80
2022/03/27 09:26:22;;;;;;;15.20;11.63;;;28.70;35.10;;;;;;5074140;28;20081;-81
2022/03/27 09:28:50;;;;;;;13.30;10.05;;;30.30;35.00;;;;;;5073250;28;20043;-84
2022/03/27 09:31:18;;;;;;;13.88;10.05;;;31.60;33.70;;;;;;5056565;28;20029;-82
2022/03/27 09:34:07;;;;;;;15.95;10.70;;;31.40;34.10;;;;;;5067122;28;20024;-83
2022/03/27 09:36:40;;;;;;;17.65;11.30;;;29.80;34.50;;;;;;5065818;28;20105;-81
2022/03/27 09:39:09;;;;;;;13.82;10.25;;;28.60;35.60;;;;;;5074739;28;20047;-80
2022/03/27 09:41:48;;;;;;;15.48;10.55;;;28.60;35.60;;;;;;5074353;28;20036;-81
2022/03/27 09:44:36;;;;;;;13.50;9.70;;;28.90;34.90;;;;;;5054738;28;20441;-82
2022/03/27 09:47:12;;;;;;;14.93;10.38;;;29.60;35.80;;;;;;5055409;28;20036;-80
2022/03/27 09:49:49;;;;;;;17.80;10.63;;;30.10;34.80;;;;;;5055096;28;20037;-80
2022/03/27 09:52:20;;;;;;;15.88;10.80;;;29.50;35.10;;;;;;5088762;28;20035;-81
2022/03/27 09:55:08;;;;;;;15.40;11.13;;;29.50;35.00;;;;;;5093767;28;20482;-83
2022/03/27 09:57:38;;;;;;;13.75;10.02;;;30.00;36.00;;;;;;5092331;28;20420;-82
2022/03/27 10:00:15;;;;;;;14.32;10.07;;;30.50;34.40;;;;;;5073611;28;20081;-83
2022/03/27 10:02:51;;;;;;;13.60;10.40;;;32.00;33.70;;;;;;5072573;28;20111;-82
2022/03/27 10:05:19;;;;;;;14.25;10.57;;;32.80;33.80;;;;;;5074334;28;20020;-82
2022/03/27 10:07:53;;;;;;;15.10;11.30;;;32.50;34.00;;;;;;5092258;28;20383;-82
2022/03/27 10:10:27;;;;;;;13.40;10.10;;;32.60;33.70;;;;;;5073009;28;20031;-83
2022/03/27 10:12:57;;;;;;;17.35;11.85;;;34.00;34.40;;;;;;5072129;28;20380;-83
2022/03/27 10:15:25;;;;;;;14.80;10.07;;;34.00;32.50;;;;;;5090321;28;20031;-83
2022/03/27 10:18:09;;;;;;;14.15;10.10;;;33.90;33.50;;;;;;5092006;28;20047;-83
2022/03/27 10:20:36;;;;;;;15.15;10.52;;;34.20;34.40;;;;;;5092555;28;20020;-83
2022/03/27 10:23:07;;;;;;;13.05;9.75;;;34.30;33.90;;;;;;5074531;28;20031;-82
2022/03/27 10:25:45;;;;;;;14.32;10.77;;;34.30;32.10;;;;;;5074319;28;20028;-82
2022/03/27 10:28:13;;;;;;;14.35;9.82;;;33.70;32.80;;;;;;5092162;28;20439;-82
2022/03/27 10:30:41;;;;;;;26.50;11.05;;;34.30;33.10;;;;;;5075325;28;20036;-83
2022/03/27 10:33:08;;;;;;;14.18;10.70;;;33.10;32.50;;;;;;5093122;28;20020;-83
2022/03/27 10:35:38;;;;;;;15.60;10.80;;;32.50;32.70;;;;;;5093382;28;20485;-83
2022/03/27 10:38:18;;;;;;;16.92;10.23;;;32.30;33.10;;;;;;5075140;28;20024;-82
2022/03/27 10:40:55;;;;;;;13.45;10.55;;;32.80;33.90;;;;;;5075043;28;20028;-81
2022/03/27 10:43:27;;;;;;;14.15;11.05;;;32.90;32.80;;;;;;5075218;28;20109;-82
2022/03/27 10:46:24;;;;;;;15.35;10.43;;;32.80;33.40;;;;;;5076718;28;20039;-82
2022/03/27 10:48:52;;;;;;;14.95;10.85;;;33.10;33.20;;;;;;5056660;28;20380;-82
2022/03/27 10:51:28;;;;;;;16.10;10.20;;;32.60;32.80;;;;;;5076081;28;20031;-83
2022/03/27 10:54:05;;;;;;;15.40;10.35;;;31.90;34.40;;;;;;5076292;28;20020;-83
2022/03/27 10:56:43;;;;;;;14.68;10.77;;;31.40;34.10;;;;;;5079686;28;20038;-83
2022/03/27 10:59:13;;;;;;;15.50;11.15;;;31.90;34.20;;;;;;5079551;28;20028;-83
2022/03/27 11:01:47;;;;;;;13.82;10.50;;;32.70;33.10;;;;;;5080103;28;20385;-83
2022/03/27 11:04:17;;;;;;;16.67;11.63;;;33.00;32.50;;;;;;5080265;28;20115;-83
2022/03/27 11:06:48;;;;;;;25.98;12.38;;;33.30;33.10;;;;;;5080807;28;20077;-83
2022/03/27 11:09:33;;;;;;;17.00;11.77;;;33.50;32.70;;;;;;5079127;28;20039;-82
2022/03/27 11:12:07;;;;;;;14.27;11.48;;;32.50;32.90;;;;;;5079409;28;20374;-82
2022/03/27 11:14:58;;;;;;;16.38;12.35;;;30.20;34.10;;;;;;5078391;28;20524;-82
2022/03/27 11:17:34;;;;;;;22.23;11.10;;;29.30;34.10;;;;;;5078142;28;20032;-83
2022/03/27 11:20:04;;;;;;;16.48;10.43;;;28.00;35.20;;;;;;5078221;28;20016;-82
2022/03/27 11:22:45;;;;;;;14.25;10.80;;;26.80;36.20;;;;;;5095809;28;20024;-82
2022/03/27 11:25:24;;;;;;;16.95;10.73;;;26.50;36.60;;;;;;5096450;28;20073;-81
2022/03/27 11:28:13;;;;;;;17.00;10.93;;;24.70;37.50;;;;;;4375515;28;10000716;-82
2022/03/27 11:30:48;;;;;;;16.08;9.52;;;23.50;38.70;;;;;;5077105;28;20394;-82
2022/03/27 11:33:23;;;;;;;15.82;10.65;;;23.50;38.90;;;;;;5095953;28;20020;-81
2022/03/27 11:36:01;;;;;;;18.17;11.07;;;23.90;38.30;;;;;;5096003;28;20526;-81
2022/03/27 11:38:31;;;;;;;15.70;10.02;;;25.00;38.40;;;;;;5077896;28;20056;-82
2022/03/27 11:41:17;;;;;;;17.42;11.48;;;25.70;37.20;;;;;;5077950;28;20115;-82
2022/03/27 11:43:43;;;;;;;16.92;10.70;;;25.50;36.70;;;;;;5077807;28;20024;-83
2022/03/27 11:46:18;;;;;;;15.65;10.23;;;25.70;36.70;;;;;;5095999;28;20081;-83
2022/03/27 11:48:55;;;;;;;14.20;10.90;;;25.40;37.10;;;;;;5077357;28;20031;-82
2022/03/27 11:51:24;;;;;;;16.05;11.07;;;25.70;36.90;;;;;;5077803;28;20020;-82
2022/03/27 11:53:51;;;;;;;14.25;11.43;;;25.70;37.20;;;;;;5077688;28;20020;-82
2022/03/27 11:56:17;;;;;;;18.17;11.18;;;25.40;37.00;;;;;;5095717;28;20023;-82
2022/03/27 11:59:12;;;;;;;19.75;11.35;;;25.50;36.50;;;;;;5077283;28;20035;-81
2022/03/27 12:01:39;;;;;;;21.48;11.90;;;25.00;37.00;;;;;;5077814;28;20020;-82
2022/03/27 12:04:06;;;;;;;15.48;11.25;;;23.30;38.00;;;;;;5095277;28;20039;-82
2022/03/27 12:06:32;;;;;;;16.60;11.55;;;23.60;39.20;;;;;;5076182;28;20367;-81
2022/03/27 12:08:58;;;;;;;18.48;11.52;;;24.20;38.40;;;;;;5077528;28;20047;-83
2022/03/27 12:11:28;;;;;;;14.82;11.25;;;24.00;38.30;;;;;;5077425;28;20081;-81
2022/03/27 12:13:56;;;;;;;16.65;11.57;;;24.10;37.80;;;;;;5077020;28;20035;-82
2022/03/27 12:16:27;;;;;;;24.05;11.27;;;24.50;37.90;;;;;;5077294;28;20051;-82
2022/03/27 12:18:53;;;;;;;15.15;10.80;;;24.70;37.20;;;;;;5077193;28;20024;-82
2022/03/27 12:21:20;;;;;;;15.18;10.95;;;24.30;38.00;;;;;;5077113;28;20024;-82
2022/03/27 12:24:02;;;;;;;22.77;11.50;;;24.10;39.20;;;;;;5094920;28;20020;-82
2022/03/27 12:32:13;;;;;;;16.20;10.70;;;22.90;38.60;;;;;;5095281;28;20186;-81
2022/03/27 12:34:53;;;;;;;14.90;10.30;;;22.70;38.80;;;;;;5095122;28;20035;-82
2022/03/27 12:37:22;;;;;;;14.30;10.98;;;22.60;39.40;;;;;;5076552;28;20497;-83
2022/03/27 12:39:50;;;;;;;15.65;10.73;;;22.70;39.10;;;;;;5076799;28;20020;-82
2022/03/27 12:42:39;;;;;;;20.23;11.38;;;22.80;39.50;;;;;;5076486;28;20028;-82
2022/03/27 12:45:23;;;;;;;16.42;10.63;;;23.30;39.00;;;;;;5076742;28;20024;-83